sensor_id;sensor_type;location;lat;lon;timestamp;P1;durP1;ratioP1;P2;durP2;ratioP2
43435;SDS011;36399;51.444;-2.018;2023-04-03T00:39:40;8.43;;;4.10;;
43435;SDS011;36399;51.444;-2.018;2023-04-03T01:06:42;10.33;;;4.37;;
43435;SDS011;36399;51.444;-2.018;2023-04-03T01:47:07;11.23;;;3.80;;
43435;SDS011;36399;51.444;-2.018;2023-04-03T02:00:56;7.03;;;4.00;;
43435;SDS011;36399;51.444;-2.018;2023-04-03T03:15:42;9.90;;;4.57;;
43435;SDS011;36399;51.444;-2.018;2023-04-03T04:39:03;15.53;;;5.27;;
43435;SDS011;36399;51.444;-2.018;2023-04-03T05:33:02;13.57;;;4.87;;
43435;SDS011;36399;51.444;-2.018;2023-04-03T05:40:42;14.37;;;4.93;;
43435;SDS011;36399;51.444;-2.018;2023-04-03T05:43:09;12.80;;;5.50;;
43435;SDS011;36399;51.444;-2.018;2023-04-03T05:45:38;17.80;;;6.23;;
43435;SDS011;36399;51.444;-2.018;2023-04-03T05:48:04;15.30;;;5.77;;
43435;SDS011;36399;51.444;-2.018;2023-04-03T05:50:30;14.13;;;5.10;;
43435;SDS011;36399;51.444;-2.018;2023-04-03T05:52:57;18.33;;;5.13;;
43435;SDS011;36399;51.444;-2.018;2023-04-03T05:55:24;12.57;;;5.25;;
43435;SDS011;36399;51.444;-2.018;2023-04-03T05:57:50;14.03;;;6.13;;
43435;SDS011;36399;51.444;-2.018;2023-04-03T06:00:19;11.37;;;5.20;;
43435;SDS011;36399;51.444;-2.018;2023-04-03T06:02:45;13.83;;;5.27;;
43435;SDS011;36399;51.444;-2.018;2023-04-03T06:05:11;13.40;;;6.33;;
43435;SDS011;36399;51.444;-2.018;2023-04-03T06:07:40;14.03;;;5.67;;
43435;SDS011;36399;51.444;-2.018;2023-04-03T06:10:07;13.13;;;5.77;;
43435;SDS011;36399;51.444;-2.018;2023-04-03T06:12:34;14.87;;;5.30;;
43435;SDS011;36399;51.444;-2.018;2023-04-03T06:15:03;11.63;;;5.83;;
43435;SDS011;36399;51.444;-2.018;2023-04-03T06:17:30;16.37;;;7.07;;
43435;SDS011;36399;51.444;-2.018;2023-04-03T06:19:58;16.47;;;7.20;;
43435;SDS011;36399;51.444;-2.018;2023-04-03T06:22:26;23.10;;;8.83;;
43435;SDS011;36399;51.444;-2.018;2023-04-03T06:24:53;18.60;;;9.50;;
43435;SDS011;36399;51.444;-2.018;2023-04-03T06:27:19;19.63;;;9.23;;
43435;SDS011;36399;51.444;-2.018;2023-04-03T06:29:45;26.80;;;11.93;;
43435;SDS011;36399;51.444;-2.018;2023-04-03T06:32:11;23.23;;;11.10;;
43435;SDS011;36399;51.444;-2.018;2023-04-03T06:34:38;32.80;;;12.93;;
43435;SDS011;36399;51.444;-2.018;2023-04-03T06:37:04;32.43;;;13.10;;
43435;SDS011;36399;51.444;-2.018;2023-04-03T06:39:31;26.50;;;11.87;;
43435;SDS011;36399;51.444;-2.018;2023-04-03T06:41:58;37.53;;;13.53;;
43435;SDS011;36399;51.444;-2.018;2023-04-03T06:44:24;31.67;;;13.30;;
43435;SDS011;36399;51.444;-2.018;2023-04-03T06:46:50;28.93;;;14.40;;
43435;SDS011;36399;51.444;-2.018;2023-04-03T06:49:17;29.63;;;13.03;;
43435;SDS011;36399;51.444;-2.018;2023-04-03T06:51:43;28.47;;;12.37;;
43435;SDS011;36399;51.444;-2.018;2023-04-03T06:54:09;29.43;;;12.47;;
43435;SDS011;36399;51.444;-2.018;2023-04-03T06:56:35;28.00;;;12.10;;
43435;SDS011;36399;51.444;-2.018;2023-04-03T06:59:02;30.53;;;13.23;;
43435;SDS011;36399;51.444;-2.018;2023-04-03T07:01:29;28.80;;;13.50;;
43435;SDS011;36399;51.444;-2.018;2023-04-03T07:03:56;29.53;;;13.10;;
43435;SDS011;36399;51.444;-2.018;2023-04-03T07:06:25;31.50;;;14.20;;
43435;SDS011;36399;51.444;-2.018;2023-04-03T07:08:52;34.07;;;13.20;;
43435;SDS011;36399;51.444;-2.018;2023-04-03T07:11:19;28.20;;;13.00;;
43435;SDS011;36399;51.444;-2.018;2023-04-03T07:13:46;33.07;;;13.23;;
43435;SDS011;36399;51.444;-2.018;2023-04-03T07:16:14;36.00;;;13.40;;
43435;SDS011;36399;51.444;-2.018;2023-04-03T07:18:46;24.77;;;11.73;;
43435;SDS011;36399;51.444;-2.018;2023-04-03T07:21:14;24.93;;;12.13;;
43435;SDS011;36399;51.444;-2.018;2023-04-03T07:23:41;25.20;;;12.33;;
43435;SDS011;36399;51.444;-2.018;2023-04-03T07:26:12;25.30;;;11.77;;
43435;SDS011;36399;51.444;-2.018;2023-04-03T07:28:38;22.57;;;11.90;;
43435;SDS011;36399;51.444;-2.018;2023-04-03T07:31:09;24.63;;;11.53;;
43435;SDS011;36399;51.444;-2.018;2023-04-03T07:33:39;24.70;;;13.50;;
43435;SDS011;36399;51.444;-2.018;2023-04-03T07:36:09;27.90;;;10.77;;
43435;SDS011;36399;51.444;-2.018;2023-04-03T07:38:37;18.43;;;10.33;;
43435;SDS011;36399;51.444;-2.018;2023-04-03T07:41:03;25.17;;;10.23;;
43435;SDS011;36399;51.444;-2.018;2023-04-03T07:43:30;19.33;;;9.47;;
43435;SDS011;36399;51.444;-2.018;2023-04-03T07:45:56;20.40;;;9.57;;
43435;SDS011;36399;51.444;-2.018;2023-04-03T07:48:24;18.47;;;9.37;;
43435;SDS011;36399;51.444;-2.018;2023-04-03T07:50:53;17.57;;;9.33;;
43435;SDS011;36399;51.444;-2.018;2023-04-03T07:53:21;18.07;;;7.90;;
43435;SDS011;36399;51.444;-2.018;2023-04-03T07:55:56;17.33;;;8.87;;
43435;SDS011;36399;51.444;-2.018;2023-04-03T07:58:24;13.13;;;5.47;;
43435;SDS011;36399;51.444;-2.018;2023-04-03T08:00:51;13.90;;;6.40;;
43435;SDS011;36399;51.444;-2.018;2023-04-03T08:03:20;15.80;;;6.17;;
43435;SDS011;36399;51.444;-2.018;2023-04-03T08:05:48;17.90;;;7.83;;
43435;SDS011;36399;51.444;-2.018;2023-04-03T08:08:17;15.03;;;4.90;;
43435;SDS011;36399;51.444;-2.018;2023-04-03T08:10:49;8.20;;;4.10;;
43435;SDS011;36399;51.444;-2.018;2023-04-03T08:13:18;10.15;;;4.13;;
43435;SDS011;36399;51.444;-2.018;2023-04-03T08:15:46;7.57;;;3.60;;
43435;SDS011;36399;51.444;-2.018;2023-04-03T08:18:13;8.30;;;4.10;;
43435;SDS011;36399;51.444;-2.018;2023-04-03T08:20:40;12.50;;;3.50;;
43435;SDS011;36399;51.444;-2.018;2023-04-03T08:23:06;11.53;;;3.87;;
43435;SDS011;36399;51.444;-2.018;2023-04-03T08:25:33;11.73;;;3.10;;
43435;SDS011;36399;51.444;-2.018;2023-04-03T08:28:03;7.13;;;3.87;;
43435;SDS011;36399;51.444;-2.018;2023-04-03T08:30:29;10.40;;;4.20;;
43435;SDS011;36399;51.444;-2.018;2023-04-03T08:32:56;7.17;;;2.93;;
43435;SDS011;36399;51.444;-2.018;2023-04-03T08:35:21;10.20;;;2.87;;
43435;SDS011;36399;51.444;-2.018;2023-04-03T08:37:48;6.87;;;3.23;;
43435;SDS011;36399;51.444;-2.018;2023-04-03T08:40:14;7.57;;;2.30;;
43435;SDS011;36399;51.444;-2.018;2023-04-03T08:48:31;7.03;;;2.43;;
43435;SDS011;36399;51.444;-2.018;2023-04-03T08:51:02;6.63;;;1.80;;
43435;SDS011;36399;51.444;-2.018;2023-04-03T08:53:37;7.23;;;2.40;;
43435;SDS011;36399;51.444;-2.018;2023-04-03T08:56:08;8.83;;;2.67;;
43435;SDS011;36399;51.444;-2.018;2023-04-03T08:58:49;6.87;;;2.10;;
43435;SDS011;36399;51.444;-2.018;2023-04-03T09:01:36;9.47;;;2.80;;
43435;SDS011;36399;51.444;-2.018;2023-04-03T09:04:14;8.57;;;3.97;;
43435;SDS011;36399;51.444;-2.018;2023-04-03T09:06:52;8.70;;;3.13;;
43435;SDS011;36399;51.444;-2.018;2023-04-03T09:14:45;6.33;;;2.97;;
43435;SDS011;36399;51.444;-2.018;2023-04-03T09:17:26;8.43;;;3.30;;
43435;SDS011;36399;51.444;-2.018;2023-04-03T09:20:19;5.43;;;3.10;;
43435;SDS011;36399;51.444;-2.018;2023-04-03T09:22:51;7.40;;;3.20;;
43435;SDS011;36399;51.444;-2.018;2023-04-03T09:25:27;10.47;;;3.57;;
43435;SDS011;36399;51.444;-2.018;2023-04-03T09:28:03;9.27;;;4.30;;
43435;SDS011;36399;51.444;-2.018;2023-04-03T09:30:35;7.97;;;4.23;;
43435;SDS011;36399;51.444;-2.018;2023-04-03T09:33:01;8.30;;;3.73;;
43435;SDS011;36399;51.444;-2.018;2023-04-03T09:35:29;9.00;;;4.30;;
43435;SDS011;36399;51.444;-2.018;2023-04-03T09:37:59;8.23;;;3.57;;
43435;SDS011;36399;51.444;-2.018;2023-04-03T09:40:39;8.03;;;3.70;;
43435;SDS011;36399;51.444;-2.018;2023-04-03T09:45:41;7.93;;;3.33;;
43435;SDS011;36399;51.444;-2.018;2023-04-03T09:50:53;6.23;;;2.90;;
43435;SDS011;36399;51.444;-2.018;2023-04-03T09:58:30;6.57;;;2.80;;
43435;SDS011;36399;51.444;-2.018;2023-04-03T10:00:59;6.70;;;2.53;;
43435;SDS011;36399;51.444;-2.018;2023-04-03T10:03:28;7.43;;;2.90;;
43435;SDS011;36399;51.444;-2.018;2023-04-03T10:06:01;5.97;;;2.90;;
43435;SDS011;36399;51.444;-2.018;2023-04-03T10:08:33;6.77;;;2.73;;
43435;SDS011;36399;51.444;-2.018;2023-04-03T10:11:13;4.80;;;2.97;;
43435;SDS011;36399;51.444;-2.018;2023-04-03T10:13:49;4.97;;;2.40;;
43435;SDS011;36399;51.444;-2.018;2023-04-03T10:16:27;6.80;;;3.77;;
43435;SDS011;36399;51.444;-2.018;2023-04-03T10:19:09;7.97;;;3.30;;
43435;SDS011;36399;51.444;-2.018;2023-04-03T10:21:48;7.13;;;3.25;;
43435;SDS011;36399;51.444;-2.018;2023-04-03T10:24:25;5.65;;;2.90;;
43435;SDS011;36399;51.444;-2.018;2023-04-03T10:40:24;7.88;;;3.78;;
43435;SDS011;36399;51.444;-2.018;2023-04-03T10:45:53;5.22;;;2.72;;
43435;SDS011;36399;51.444;-2.018;2023-04-03T10:53:31;5.55;;;2.65;;
43435;SDS011;36399;51.444;-2.018;2023-04-03T10:58:44;7.70;;;3.08;;
43435;SDS011;36399;51.444;-2.018;2023-04-03T11:01:21;9.70;;;2.85;;
43435;SDS011;36399;51.444;-2.018;2023-04-03T11:06:24;7.20;;;2.90;;
43435;SDS011;36399;51.444;-2.018;2023-04-03T11:08:57;6.38;;;3.33;;
43435;SDS011;36399;51.444;-2.018;2023-04-03T11:11:30;5.80;;;2.80;;
43435;SDS011;36399;51.444;-2.018;2023-04-03T11:17:15;5.93;;;2.60;;
43435;SDS011;36399;51.444;-2.018;2023-04-03T11:19:39;7.55;;;2.90;;
43435;SDS011;36399;51.444;-2.018;2023-04-03T11:22:25;4.30;;;2.55;;
43435;SDS011;36399;51.444;-2.018;2023-04-03T11:28:09;6.38;;;2.55;;
43435;SDS011;36399;51.444;-2.018;2023-04-03T11:30:39;5.82;;;2.50;;
43435;SDS011;36399;51.444;-2.018;2023-04-03T11:36:27;7.32;;;3.20;;
43435;SDS011;36399;51.444;-2.018;2023-04-03T11:38:58;5.35;;;2.67;;
43435;SDS011;36399;51.444;-2.018;2023-04-03T11:41:28;4.40;;;2.47;;
43435;SDS011;36399;51.444;-2.018;2023-04-03T11:47:02;6.70;;;2.58;;
43435;SDS011;36399;51.444;-2.018;2023-04-03T12:14:20;8.15;;;3.25;;
43435;SDS011;36399;51.444;-2.018;2023-04-03T12:26:38;6.25;;;2.97;;
43435;SDS011;36399;51.444;-2.018;2023-04-03T12:31:50;5.70;;;3.08;;
43435;SDS011;36399;51.444;-2.018;2023-04-03T12:39:43;6.68;;;3.60;;
43435;SDS011;36399;51.444;-2.018;2023-04-03T12:45:24;7.75;;;3.90;;
43435;SDS011;36399;51.444;-2.018;2023-04-03T12:47:52;6.55;;;3.67;;
43435;SDS011;36399;51.444;-2.018;2023-04-03T12:50:24;7.43;;;3.33;;
43435;SDS011;36399;51.444;-2.018;2023-04-03T12:53:05;6.97;;;3.88;;
43435;SDS011;36399;51.444;-2.018;2023-04-03T12:55:32;8.75;;;4.55;;
43435;SDS011;36399;51.444;-2.018;2023-04-03T12:58:15;6.25;;;3.30;;
43435;SDS011;36399;51.444;-2.018;2023-04-03T13:00:48;6.40;;;3.72;;
43435;SDS011;36399;51.444;-2.018;2023-04-03T13:03:28;5.50;;;3.40;;
43435;SDS011;36399;51.444;-2.018;2023-04-03T13:06:04;7.68;;;3.90;;
43435;SDS011;36399;51.444;-2.018;2023-04-03T13:08:30;11.18;;;3.45;;
43435;SDS011;36399;51.444;-2.018;2023-04-03T13:11:04;6.55;;;3.67;;
43435;SDS011;36399;51.444;-2.018;2023-04-03T13:13:34;8.75;;;3.83;;
43435;SDS011;36399;51.444;-2.018;2023-04-03T13:16:00;5.03;;;3.30;;
43435;SDS011;36399;51.444;-2.018;2023-04-03T13:18:35;8.35;;;5.32;;
43435;SDS011;36399;51.444;-2.018;2023-04-03T13:21:05;7.80;;;3.55;;
43435;SDS011;36399;51.444;-2.018;2023-04-03T13:23:38;8.05;;;3.95;;
43435;SDS011;36399;51.444;-2.018;2023-04-03T13:26:08;5.38;;;3.45;;
43435;SDS011;36399;51.444;-2.018;2023-04-03T13:28:35;7.32;;;3.83;;
43435;SDS011;36399;51.444;-2.018;2023-04-03T13:31:07;11.68;;;4.30;;
43435;SDS011;36399;51.444;-2.018;2023-04-03T13:33:41;6.95;;;3.50;;
43435;SDS011;36399;51.444;-2.018;2023-04-03T13:36:19;6.22;;;3.40;;
43435;SDS011;36399;51.444;-2.018;2023-04-03T13:38:57;5.93;;;3.90;;
43435;SDS011;36399;51.444;-2.018;2023-04-03T13:41:34;6.25;;;3.28;;
43435;SDS011;36399;51.444;-2.018;2023-04-03T13:44:49;6.72;;;3.63;;
43435;SDS011;36399;51.444;-2.018;2023-04-03T13:46:54;6.68;;;3.95;;
43435;SDS011;36399;51.444;-2.018;2023-04-03T13:49:22;6.03;;;3.25;;
43435;SDS011;36399;51.444;-2.018;2023-04-03T13:51:57;7.60;;;3.53;;
43435;SDS011;36399;51.444;-2.018;2023-04-03T13:54:28;8.38;;;3.75;;
43435;SDS011;36399;51.444;-2.018;2023-04-03T13:56:58;5.47;;;3.53;;
43435;SDS011;36399;51.444;-2.018;2023-04-03T13:59:34;7.40;;;3.88;;
43435;SDS011;36399;51.444;-2.018;2023-04-03T14:04:28;8.77;;;3.72;;
43435;SDS011;36399;51.444;-2.018;2023-04-03T14:06:58;9.93;;;5.70;;
43435;SDS011;36399;51.444;-2.018;2023-04-03T14:09:26;6.80;;;4.40;;
43435;SDS011;36399;51.444;-2.018;2023-04-03T14:11:54;7.15;;;4.43;;
43435;SDS011;36399;51.444;-2.018;2023-04-03T14:14:29;6.18;;;4.18;;
43435;SDS011;36399;51.444;-2.018;2023-04-03T14:16:59;7.43;;;4.28;;
43435;SDS011;36399;51.444;-2.018;2023-04-03T14:19:28;7.80;;;4.03;;
43435;SDS011;36399;51.444;-2.018;2023-04-03T14:21:57;7.63;;;4.57;;
43435;SDS011;36399;51.444;-2.018;2023-04-03T14:24:25;7.60;;;4.72;;
43435;SDS011;36399;51.444;-2.018;2023-04-03T14:26:51;8.30;;;4.63;;
43435;SDS011;36399;51.444;-2.018;2023-04-03T14:29:19;13.32;;;5.57;;
43435;SDS011;36399;51.444;-2.018;2023-04-03T14:31:47;6.65;;;4.38;;
43435;SDS011;36399;51.444;-2.018;2023-04-03T14:34:15;6.90;;;3.70;;
43435;SDS011;36399;51.444;-2.018;2023-04-03T14:36:42;8.93;;;4.57;;
43435;SDS011;36399;51.444;-2.018;2023-04-03T14:39:18;6.80;;;5.10;;
43435;SDS011;36399;51.444;-2.018;2023-04-03T14:41:45;8.23;;;5.53;;
43435;SDS011;36399;51.444;-2.018;2023-04-03T14:44:11;7.63;;;4.40;;
43435;SDS011;36399;51.444;-2.018;2023-04-03T14:46:39;7.85;;;4.15;;
43435;SDS011;36399;51.444;-2.018;2023-04-03T14:49:13;8.18;;;4.90;;
43435;SDS011;36399;51.444;-2.018;2023-04-03T14:51:41;6.28;;;4.63;;
43435;SDS011;36399;51.444;-2.018;2023-04-03T14:54:12;6.13;;;4.40;;
43435;SDS011;36399;51.444;-2.018;2023-04-03T14:56:41;6.38;;;4.72;;
43435;SDS011;36399;51.444;-2.018;2023-04-03T14:59:09;9.45;;;4.40;;
43435;SDS011;36399;51.444;-2.018;2023-04-03T15:01:37;10.27;;;5.05;;
43435;SDS011;36399;51.444;-2.018;2023-04-03T15:04:16;7.28;;;4.50;;
43435;SDS011;36399;51.444;-2.018;2023-04-03T15:06:48;7.03;;;4.60;;
43435;SDS011;36399;51.444;-2.018;2023-04-03T15:09:22;6.50;;;4.45;;
43435;SDS011;36399;51.444;-2.018;2023-04-03T15:11:50;6.82;;;4.30;;
43435;SDS011;36399;51.444;-2.018;2023-04-03T15:14:18;7.95;;;4.32;;
43435;SDS011;36399;51.444;-2.018;2023-04-03T15:16:44;5.13;;;3.67;;
43435;SDS011;36399;51.444;-2.018;2023-04-03T15:19:10;7.95;;;4.30;;
43435;SDS011;36399;51.444;-2.018;2023-04-03T15:21:37;6.72;;;4.00;;
43435;SDS011;36399;51.444;-2.018;2023-04-03T15:24:04;7.30;;;3.75;;
43435;SDS011;36399;51.444;-2.018;2023-04-03T15:26:30;6.10;;;3.75;;
43435;SDS011;36399;51.444;-2.018;2023-04-03T15:28:59;8.35;;;4.00;;
43435;SDS011;36399;51.444;-2.018;2023-04-03T15:31:25;8.98;;;4.00;;
43435;SDS011;36399;51.444;-2.018;2023-04-03T15:33:52;6.00;;;3.60;;
43435;SDS011;36399;51.444;-2.018;2023-04-03T15:36:18;7.65;;;3.83;;
43435;SDS011;36399;51.444;-2.018;2023-04-03T15:38:44;5.35;;;3.63;;
43435;SDS011;36399;51.444;-2.018;2023-04-03T15:41:10;5.78;;;3.72;;
43435;SDS011;36399;51.444;-2.018;2023-04-03T15:43:37;5.85;;;4.00;;
43435;SDS011;36399;51.444;-2.018;2023-04-03T15:46:03;8.13;;;4.13;;
43435;SDS011;36399;51.444;-2.018;2023-04-03T15:48:29;8.80;;;3.83;;
43435;SDS011;36399;51.444;-2.018;2023-04-03T15:50:55;5.78;;;3.50;;
43435;SDS011;36399;51.444;-2.018;2023-04-03T15:53:22;6.75;;;3.63;;
43435;SDS011;36399;51.444;-2.018;2023-04-03T15:55:47;7.65;;;4.22;;
43435;SDS011;36399;51.444;-2.018;2023-04-03T15:58:13;5.57;;;3.30;;
43435;SDS011;36399;51.444;-2.018;2023-04-03T16:00:39;6.45;;;4.15;;
43435;SDS011;36399;51.444;-2.018;2023-04-03T16:03:08;5.63;;;3.60;;
43435;SDS011;36399;51.444;-2.018;2023-04-03T16:05:37;5.95;;;3.03;;
43435;SDS011;36399;51.444;-2.018;2023-04-03T16:08:05;5.68;;;3.72;;
43435;SDS011;36399;51.444;-2.018;2023-04-03T16:10:34;6.38;;;3.10;;
43435;SDS011;36399;51.444;-2.018;2023-04-03T16:13:02;7.53;;;3.80;;
43435;SDS011;36399;51.444;-2.018;2023-04-03T16:15:29;5.95;;;2.90;;
43435;SDS011;36399;51.444;-2.018;2023-04-03T16:17:56;6.40;;;3.45;;
43435;SDS011;36399;51.444;-2.018;2023-04-03T16:20:23;9.32;;;3.28;;
43435;SDS011;36399;51.444;-2.018;2023-04-03T16:22:50;7.47;;;3.55;;
43435;SDS011;36399;51.444;-2.018;2023-04-03T16:25:16;7.30;;;2.75;;
43435;SDS011;36399;51.444;-2.018;2023-04-03T16:27:43;6.63;;;3.58;;
43435;SDS011;36399;51.444;-2.018;2023-04-03T16:30:09;4.88;;;3.03;;
43435;SDS011;36399;51.444;-2.018;2023-04-03T16:32:36;7.25;;;3.38;;
43435;SDS011;36399;51.444;-2.018;2023-04-03T16:35:04;5.32;;;2.92;;
43435;SDS011;36399;51.444;-2.018;2023-04-03T16:37:31;6.55;;;3.08;;
43435;SDS011;36399;51.444;-2.018;2023-04-03T16:39:57;4.57;;;2.28;;
43435;SDS011;36399;51.444;-2.018;2023-04-03T16:42:24;7.72;;;2.63;;
43435;SDS011;36399;51.444;-2.018;2023-04-03T16:44:50;5.40;;;2.85;;
43435;SDS011;36399;51.444;-2.018;2023-04-03T16:47:16;6.80;;;3.20;;
43435;SDS011;36399;51.444;-2.018;2023-04-03T16:49:44;6.20;;;2.88;;
43435;SDS011;36399;51.444;-2.018;2023-04-03T16:52:11;5.72;;;3.55;;
43435;SDS011;36399;51.444;-2.018;2023-04-03T16:54:37;7.40;;;2.92;;
43435;SDS011;36399;51.444;-2.018;2023-04-03T16:57:03;4.72;;;2.88;;
43435;SDS011;36399;51.444;-2.018;2023-04-03T16:59:29;4.93;;;2.50;;
43435;SDS011;36399;51.444;-2.018;2023-04-03T17:01:55;4.47;;;2.55;;
43435;SDS011;36399;51.444;-2.018;2023-04-03T17:04:21;7.18;;;2.90;;
43435;SDS011;36399;51.444;-2.018;2023-04-03T17:06:47;6.43;;;2.92;;
43435;SDS011;36399;51.444;-2.018;2023-04-03T17:09:13;7.65;;;3.03;;
43435;SDS011;36399;51.444;-2.018;2023-04-03T17:11:39;6.25;;;2.80;;
43435;SDS011;36399;51.444;-2.018;2023-04-03T17:14:05;6.13;;;3.00;;
43435;SDS011;36399;51.444;-2.018;2023-04-03T17:16:32;5.53;;;2.80;;
43435;SDS011;36399;51.444;-2.018;2023-04-03T17:19:00;4.78;;;2.90;;
43435;SDS011;36399;51.444;-2.018;2023-04-03T17:21:28;4.70;;;3.17;;
43435;SDS011;36399;51.444;-2.018;2023-04-03T17:23:55;6.32;;;3.33;;
43435;SDS011;36399;51.444;-2.018;2023-04-03T17:26:24;9.55;;;5.25;;
43435;SDS011;36399;51.444;-2.018;2023-04-03T17:28:52;27.48;;;23.15;;
43435;SDS011;36399;51.444;-2.018;2023-04-03T17:31:18;8.65;;;7.55;;
43435;SDS011;36399;51.444;-2.018;2023-04-03T17:33:44;5.65;;;5.03;;
43435;SDS011;36399;51.444;-2.018;2023-04-03T17:36:11;7.57;;;3.88;;
43435;SDS011;36399;51.444;-2.018;2023-04-03T17:38:37;5.50;;;3.50;;
43435;SDS011;36399;51.444;-2.018;2023-04-03T17:41:04;6.47;;;3.33;;
43435;SDS011;36399;51.444;-2.018;2023-04-03T17:43:32;6.03;;;2.97;;
43435;SDS011;36399;51.444;-2.018;2023-04-03T17:46:00;7.18;;;2.97;;
43435;SDS011;36399;51.444;-2.018;2023-04-03T17:48:33;6.32;;;2.63;;
43435;SDS011;36399;51.444;-2.018;2023-04-03T17:51:04;4.93;;;2.60;;
43435;SDS011;36399;51.444;-2.018;2023-04-03T17:53:35;5.30;;;2.75;;
43435;SDS011;36399;51.444;-2.018;2023-04-03T17:56:08;4.13;;;2.40;;
43435;SDS011;36399;51.444;-2.018;2023-04-03T17:58:38;8.10;;;3.13;;
43435;SDS011;36399;51.444;-2.018;2023-04-03T18:01:11;5.90;;;3.08;;
43435;SDS011;36399;51.444;-2.018;2023-04-03T18:03:39;5.90;;;3.30;;
43435;SDS011;36399;51.444;-2.018;2023-04-03T18:06:07;6.50;;;4.07;;
43435;SDS011;36399;51.444;-2.018;2023-04-03T18:08:43;6.32;;;3.38;;
43435;SDS011;36399;51.444;-2.018;2023-04-03T18:11:20;5.37;;;3.47;;
43435;SDS011;36399;51.444;-2.018;2023-04-03T18:13:51;6.87;;;4.47;;
43435;SDS011;36399;51.444;-2.018;2023-04-03T18:16:18;10.80;;;7.37;;
43435;SDS011;36399;51.444;-2.018;2023-04-03T18:18:44;11.90;;;7.50;;
43435;SDS011;36399;51.444;-2.018;2023-04-03T18:21:11;15.67;;;9.63;;
43435;SDS011;36399;51.444;-2.018;2023-04-03T18:23:39;16.60;;;10.63;;
43435;SDS011;36399;51.444;-2.018;2023-04-03T18:26:08;9.60;;;6.23;;
43435;SDS011;36399;51.444;-2.018;2023-04-03T18:28:36;6.93;;;3.90;;
43435;SDS011;36399;51.444;-2.018;2023-04-03T18:31:04;5.90;;;3.90;;
43435;SDS011;36399;51.444;-2.018;2023-04-03T18:33:30;5.87;;;3.63;;
43435;SDS011;36399;51.444;-2.018;2023-04-03T18:35:56;8.00;;;3.67;;
43435;SDS011;36399;51.444;-2.018;2023-04-03T18:38:22;6.37;;;3.43;;
43435;SDS011;36399;51.444;-2.018;2023-04-03T18:40:48;12.87;;;4.57;;
43435;SDS011;36399;51.444;-2.018;2023-04-03T18:43:14;6.27;;;3.97;;
43435;SDS011;36399;51.444;-2.018;2023-04-03T18:45:40;5.83;;;3.27;;
43435;SDS011;36399;51.444;-2.018;2023-04-03T18:48:11;7.17;;;3.50;;
43435;SDS011;36399;51.444;-2.018;2023-04-03T18:50:37;7.27;;;4.17;;
43435;SDS011;36399;51.444;-2.018;2023-04-03T18:53:06;6.70;;;3.70;;
43435;SDS011;36399;51.444;-2.018;2023-04-03T18:55:32;7.33;;;3.60;;
43435;SDS011;36399;51.444;-2.018;2023-04-03T18:57:58;8.77;;;3.80;;
43435;SDS011;36399;51.444;-2.018;2023-04-03T19:00:24;5.50;;;3.77;;
43435;SDS011;36399;51.444;-2.018;2023-04-03T19:02:50;8.77;;;3.60;;
43435;SDS011;36399;51.444;-2.018;2023-04-03T19:05:16;7.43;;;3.40;;
43435;SDS011;36399;51.444;-2.018;2023-04-03T19:07:44;7.87;;;3.93;;
43435;SDS011;36399;51.444;-2.018;2023-04-03T19:10:12;6.40;;;4.03;;
43435;SDS011;36399;51.444;-2.018;2023-04-03T19:12:45;6.60;;;3.67;;
43435;SDS011;36399;51.444;-2.018;2023-04-03T19:15:13;7.10;;;4.10;;
43435;SDS011;36399;51.444;-2.018;2023-04-03T19:17:41;6.10;;;3.87;;
43435;SDS011;36399;51.444;-2.018;2023-04-03T19:20:07;7.43;;;3.57;;
43435;SDS011;36399;51.444;-2.018;2023-04-03T19:22:34;7.03;;;3.30;;
43435;SDS011;36399;51.444;-2.018;2023-04-03T19:25:01;5.53;;;3.30;;
43435;SDS011;36399;51.444;-2.018;2023-04-03T19:27:28;4.90;;;3.33;;
43435;SDS011;36399;51.444;-2.018;2023-04-03T19:29:54;7.97;;;3.23;;
43435;SDS011;36399;51.444;-2.018;2023-04-03T19:32:20;7.97;;;3.63;;
43435;SDS011;36399;51.444;-2.018;2023-04-03T19:34:46;6.67;;;4.67;;
43435;SDS011;36399;51.444;-2.018;2023-04-03T19:37:12;8.80;;;4.90;;
43435;SDS011;36399;51.444;-2.018;2023-04-03T19:39:39;6.40;;;4.13;;
43435;SDS011;36399;51.444;-2.018;2023-04-03T19:42:05;12.97;;;5.13;;
43435;SDS011;36399;51.444;-2.018;2023-04-03T19:44:32;10.60;;;4.47;;
43435;SDS011;36399;51.444;-2.018;2023-04-03T19:47:01;11.13;;;5.40;;
43435;SDS011;36399;51.444;-2.018;2023-04-03T19:49:28;7.50;;;4.40;;
43435;SDS011;36399;51.444;-2.018;2023-04-03T19:51:54;8.73;;;4.17;;
43435;SDS011;36399;51.444;-2.018;2023-04-03T19:54:20;8.17;;;4.07;;
43435;SDS011;36399;51.444;-2.018;2023-04-03T19:56:47;7.80;;;5.03;;
43435;SDS011;36399;51.444;-2.018;2023-04-03T19:59:17;8.60;;;3.93;;
43435;SDS011;36399;51.444;-2.018;2023-04-03T20:01:43;7.60;;;3.80;;
43435;SDS011;36399;51.444;-2.018;2023-04-03T20:04:10;6.93;;;3.33;;
43435;SDS011;36399;51.444;-2.018;2023-04-03T20:06:36;7.13;;;3.10;;
43435;SDS011;36399;51.444;-2.018;2023-04-03T20:09:02;6.43;;;3.30;;
43435;SDS011;36399;51.444;-2.018;2023-04-03T20:11:29;7.33;;;3.43;;
43435;SDS011;36399;51.444;-2.018;2023-04-03T20:13:55;11.50;;;3.83;;
43435;SDS011;36399;51.444;-2.018;2023-04-03T20:16:21;7.83;;;3.53;;
43435;SDS011;36399;51.444;-2.018;2023-04-03T20:18:50;7.63;;;4.17;;
43435;SDS011;36399;51.444;-2.018;2023-04-03T20:21:19;9.80;;;3.67;;
43435;SDS011;36399;51.444;-2.018;2023-04-03T20:23:47;5.67;;;3.40;;
43435;SDS011;36399;51.444;-2.018;2023-04-03T20:26:20;6.27;;;3.47;;
43435;SDS011;36399;51.444;-2.018;2023-04-03T20:28:49;8.53;;;4.23;;
43435;SDS011;36399;51.444;-2.018;2023-04-03T20:31:15;5.97;;;3.60;;
43435;SDS011;36399;51.444;-2.018;2023-04-03T20:33:42;6.33;;;3.63;;
43435;SDS011;36399;51.444;-2.018;2023-04-03T20:36:09;4.73;;;3.00;;
43435;SDS011;36399;51.444;-2.018;2023-04-03T20:38:35;7.37;;;3.87;;
43435;SDS011;36399;51.444;-2.018;2023-04-03T20:41:03;6.90;;;3.80;;
43435;SDS011;36399;51.444;-2.018;2023-04-03T20:43:32;7.40;;;3.77;;
43435;SDS011;36399;51.444;-2.018;2023-04-03T20:45:59;6.30;;;3.50;;
43435;SDS011;36399;51.444;-2.018;2023-04-03T20:48:26;6.80;;;3.70;;
43435;SDS011;36399;51.444;-2.018;2023-04-03T20:50:52;5.03;;;3.17;;
43435;SDS011;36399;51.444;-2.018;2023-04-03T20:53:18;5.43;;;3.57;;
43435;SDS011;36399;51.444;-2.018;2023-04-03T20:55:58;6.70;;;3.90;;
43435;SDS011;36399;51.444;-2.018;2023-04-03T20:58:25;7.23;;;4.60;;
43435;SDS011;36399;51.444;-2.018;2023-04-03T21:00:55;6.87;;;4.33;;
43435;SDS011;36399;51.444;-2.018;2023-04-03T21:03:25;8.17;;;4.17;;
43435;SDS011;36399;51.444;-2.018;2023-04-03T21:20:41;7.87;;;4.67;;
43435;SDS011;36399;51.444;-2.018;2023-04-03T21:23:12;5.70;;;3.87;;
43435;SDS011;36399;51.444;-2.018;2023-04-03T21:25:40;6.03;;;3.70;;
43435;SDS011;36399;51.444;-2.018;2023-04-03T21:28:13;9.30;;;3.53;;
43435;SDS011;36399;51.444;-2.018;2023-04-03T21:30:41;6.27;;;3.53;;
43435;SDS011;36399;51.444;-2.018;2023-04-03T21:33:10;7.93;;;3.00;;
43435;SDS011;36399;51.444;-2.018;2023-04-03T21:40:51;6.57;;;3.37;;
43435;SDS011;36399;51.444;-2.018;2023-04-03T21:52:01;4.57;;;2.83;;
43435;SDS011;36399;51.444;-2.018;2023-04-03T21:54:29;6.07;;;2.80;;
43435;SDS011;36399;51.444;-2.018;2023-04-03T21:56:55;6.17;;;3.13;;
43435;SDS011;36399;51.444;-2.018;2023-04-03T22:02:47;6.50;;;2.87;;
43435;SDS011;36399;51.444;-2.018;2023-04-03T22:05:13;6.13;;;2.10;;
43435;SDS011;36399;51.444;-2.018;2023-04-03T22:07:42;4.13;;;2.37;;
43435;SDS011;36399;51.444;-2.018;2023-04-03T22:10:15;6.40;;;2.30;;
43435;SDS011;36399;51.444;-2.018;2023-04-03T22:12:47;4.33;;;2.07;;
43435;SDS011;36399;51.444;-2.018;2023-04-03T22:15:16;4.33;;;2.27;;
43435;SDS011;36399;51.444;-2.018;2023-04-03T22:17:48;3.70;;;2.07;;
43435;SDS011;36399;51.444;-2.018;2023-04-03T22:20:16;6.53;;;2.23;;
43435;SDS011;36399;51.444;-2.018;2023-04-03T22:22:43;4.43;;;1.90;;
43435;SDS011;36399;51.444;-2.018;2023-04-03T22:25:09;5.47;;;2.30;;